Terminal Aerodrome Forecast
Issued by NWS Austin/San Antonio, TX

Home | Current Version | Previous Version | Text Only | Print | Product List | Glossary On
Versions: 1 2 3 4 5 6 7 8 9 10 11 12 13 14 15 16 17 18 19 20 21 22 23 24 25
399
FTUS44 KEWX 230208 AAA
TAFAUS
TAF AMD
KAUS 230208Z 2302/2406 03005KT P6SM FEW022 SCT150
     FM230400 04004KT P6SM OVC022
     FM230800 VRB03KT P6SM SCT007 OVC018
     FM231400 02006KT P6SM FEW009 OVC022
     FM231800 36012KT P6SM VCSH BKN035 PROB30 2318/2324 5SM TSRA
      FEW010 BKN035CB
     FM240100 01010KT P6SM SCT050=

USA.gov is the U.S. government's official web portal to all federal, state and local government web resources and services.